Time;durP1;ratioP1;P1;durP2;ratioP2;P2;SDS_P1;SDS_P2;PMS_P1;PMS_P2;Temp;Humidity;BMP_temperature;BMP_pressure;BME280_temperature;BME280_humidity;BME280_pressure;Samples;Min_cycle;Max_cycle;Signal;HPM_P1;HPM_P2
2023/06/12 00:01:41;;;;;;;4.47;4.27;;;22.00;36.10;;;;;;20940;6722;116917;-79
2023/06/12 00:04:17;;;;;;;5.47;5.00;;;21.80;36.40;;;;;;20923;6722;147575;-79
2023/06/12 00:06:58;;;;;;;5.30;5.00;;;21.50;36.90;;;;;;20812;6737;117422;-79
2023/06/12 00:09:28;;;;;;;5.43;5.13;;;21.40;36.80;;;;;;20683;6737;277219;-78
2023/06/12 00:12:04;;;;;;;5.80;5.50;;;21.70;36.90;;;;;;20685;6738;281267;-79
2023/06/12 00:14:40;;;;;;;5.57;5.17;;;22.10;36.50;;;;;;20882;6735;117291;-79
2023/06/12 00:17:15;;;;;;;5.40;5.10;;;22.00;36.40;;;;;;20860;6721;117741;-79
2023/06/12 00:19:51;;;;;;;5.57;5.17;;;21.70;36.60;;;;;;20968;6765;123014;-79
2023/06/12 00:22:27;;;;;;;5.40;5.00;;;21.70;37.30;;;;;;20748;6706;305557;-79
2023/06/12 00:25:03;;;;;;;4.87;4.67;;;21.70;37.30;;;;;;20983;6706;118180;-79
2023/06/12 00:27:44;;;;;;;4.80;4.60;;;21.70;37.20;;;;;;20840;6706;119834;-79
2023/06/12 00:30:14;;;;;;;5.13;4.63;;;21.40;37.20;;;;;;20929;6723;118029;-79
2023/06/12 00:32:50;;;;;;;5.87;5.37;;;21.30;37.50;;;;;;20886;6737;117379;-79
2023/06/12 00:35:26;;;;;;;5.57;5.17;;;21.20;37.70;;;;;;20861;6751;121007;-79
2023/06/12 00:38:02;;;;;;;5.60;5.22;;;21.00;37.80;;;;;;20496;6745;341755;-78
2023/06/12 00:40:41;;;;;;;5.60;5.20;;;21.30;38.00;;;;;;20926;6723;121211;-79
2023/06/12 00:43:13;;;;;;;5.10;4.80;;;21.30;37.70;;;;;;20919;6735;116937;-79
2023/06/12 00:45:49;;;;;;;5.90;5.40;;;21.20;37.90;;;;;;20691;6735;278361;-78
2023/06/12 00:48:26;;;;;;;5.62;5.22;;;21.40;38.10;;;;;;20651;6749;336125;-79
2023/06/12 00:51:01;;;;;;;5.65;5.25;;;21.70;37.60;;;;;;20715;6735;276502;-78
2023/06/12 00:53:37;;;;;;;5.53;5.13;;;22.00;37.20;;;;;;20919;6735;117038;-79
2023/06/12 00:56:13;;;;;;;5.68;5.20;;;21.80;37.30;;;;;;20659;6751;307612;-80
2023/06/12 00:58:48;;;;;;;5.75;5.40;;;21.80;37.40;;;;;;20656;6750;314991;-78
2023/06/12 01:01:26;;;;;;;5.73;5.33;;;22.20;36.50;;;;;;20723;6730;284937;-78
2023/06/12 01:04:01;;;;;;;5.10;4.80;;;22.20;36.90;;;;;;20937;6730;116045;-79
2023/06/12 01:06:37;;;;;;;5.17;4.77;;;21.90;37.00;;;;;;20839;6730;119378;-79
2023/06/12 01:09:29;;;;;;;5.53;5.10;;;21.60;37.30;;;;;;20905;6735;118754;-78
2023/06/12 01:12:05;;;;;;;4.50;4.30;;;21.30;37.60;;;;;;20890;6736;117238;-78
2023/06/12 01:14:47;;;;;;;5.70;4.80;;;21.10;37.80;;;;;;20895;6733;115916;-78
2023/06/12 01:17:22;;;;;;;4.97;4.60;;;20.90;38.00;;;;;;20788;6742;117387;-78
2023/06/12 01:20:03;;;;;;;5.30;5.00;;;20.80;38.20;;;;;;20918;6731;116059;-78
2023/06/12 01:22:36;;;;;;;5.07;4.77;;;20.70;39.20;;;;;;20893;6731;122640;-78
2023/06/12 01:25:20;;;;;;;5.60;5.20;;;20.70;38.40;;;;;;20615;6756;307019;-79
2023/06/12 01:27:59;;;;;;;5.17;4.77;;;21.00;38.80;;;;;;20765;6742;120573;-78
2023/06/12 01:30:41;;;;;;;4.80;4.57;;;21.10;38.40;;;;;;20943;6716;119886;-78
2023/06/12 01:33:17;;;;;;;5.30;5.00;;;20.90;38.40;;;;;;20781;6716;285807;-79
2023/06/12 01:35:53;;;;;;;5.00;4.70;;;21.20;38.80;;;;;;20980;6716;116069;-79
2023/06/12 01:38:27;;;;;;;5.47;5.10;;;21.20;38.40;;;;;;20824;6697;280661;-79
2023/06/12 01:41:03;;;;;;;5.80;5.40;;;21.40;38.50;;;;;;20832;6697;334016;-79
2023/06/12 01:43:38;;;;;;;5.40;4.87;;;21.70;38.30;;;;;;21056;6697;116546;-79
2023/06/12 01:46:15;;;;;;;5.00;4.70;;;21.60;38.10;;;;;;20995;6697;120369;-80
2023/06/12 01:48:51;;;;;;;5.57;5.28;;;21.30;38.30;;;;;;20836;6697;303640;-79
2023/06/12 01:51:27;;;;;;;6.00;5.50;;;21.80;39.10;;;;;;20816;6697;278864;-79
2023/06/12 01:54:03;;;;;;;5.23;4.93;;;21.70;38.10;;;;;;20806;6709;278864;-78
2023/06/12 01:56:38;;;;;;;5.03;4.77;;;22.00;37.90;;;;;;20910;6718;122994;-79
2023/06/12 01:59:14;;;;;;;5.70;5.30;;;21.80;38.10;;;;;;20749;6718;301180;-79
2023/06/12 02:01:49;;;;;;;4.90;4.70;;;21.80;38.20;;;;;;21011;6708;116245;-79
2023/06/12 02:04:27;;;;;;;5.60;5.10;;;21.60;38.80;;;;;;20772;6708;275891;-79
2023/06/12 02:07:02;;;;;;;5.40;5.00;;;21.70;38.40;;;;;;20873;6723;117682;-79
2023/06/12 02:09:37;;;;;;;5.32;5.00;;;21.50;38.40;;;;;;20827;6697;303834;-79
2023/06/12 02:12:13;;;;;;;5.40;5.10;;;21.60;38.60;;;;;;20824;6697;287054;-79
2023/06/12 02:14:50;;;;;;;5.30;4.90;;;21.80;38.40;;;;;;20792;6708;277268;-79
2023/06/12 02:17:24;;;;;;;4.93;4.73;;;22.00;38.20;;;;;;20860;6723;117373;-79
2023/06/12 02:20:00;;;;;;;5.30;5.00;;;21.80;38.20;;;;;;21045;6697;117113;-78
2023/06/12 02:22:39;;;;;;;5.20;4.90;;;21.10;38.90;;;;;;21018;6753;121702;-79
2023/06/12 02:25:11;;;;;;;5.43;5.03;;;21.10;38.90;;;;;;20827;6697;309023;-78
2023/06/12 02:27:47;;;;;;;5.40;5.10;;;21.30;38.70;;;;;;20692;6697;306358;-78
2023/06/12 02:30:23;;;;;;;5.23;4.93;;;21.60;39.00;;;;;;20981;6709;121640;-79
2023/06/12 02:32:59;;;;;;;5.57;5.20;;;21.50;39.30;;;;;;20677;6745;281174;-79
2023/06/12 02:35:42;;;;;;;5.47;5.07;;;21.50;39.00;;;;;;20727;6730;280964;-79
2023/06/12 02:38:16;;;;;;;5.67;5.30;;;21.70;38.70;;;;;;20719;6730;277048;-79
2023/06/12 02:40:52;;;;;;;5.13;4.70;;;21.90;38.40;;;;;;20929;6791;117079;-78
2023/06/12 02:43:27;;;;;;;5.30;5.00;;;21.70;38.40;;;;;;20730;6730;278365;-79
2023/06/12 02:46:03;;;;;;;5.53;5.22;;;21.70;38.80;;;;;;20733;6718;308956;-79
2023/06/12 02:48:39;;;;;;;5.27;4.87;;;21.60;38.60;;;;;;20945;6725;119133;-79
2023/06/12 02:51:15;;;;;;;5.23;4.93;;;21.60;38.60;;;;;;20732;6730;275877;-79
2023/06/12 02:53:50;;;;;;;5.00;4.70;;;21.60;39.00;;;;;;20993;6718;120291;-79
2023/06/12 02:56:26;;;;;;;5.30;4.80;;;21.40;38.90;;;;;;20874;6730;120087;-79
2023/06/12 02:59:02;;;;;;;5.13;4.83;;;21.10;39.20;;;;;;20990;6715;116123;-78
2023/06/12 03:01:43;;;;;;;5.47;5.10;;;20.80;39.40;;;;;;20972;6718;116000;-79
2023/06/12 03:04:22;;;;;;;5.40;5.10;;;20.60;39.70;;;;;;20747;6726;276057;-80
2023/06/12 03:06:51;;;;;;;5.70;5.40;;;20.80;39.90;;;;;;20675;6725;287004;-78
2023/06/12 03:09:24;;;;;;;5.60;5.20;;;21.20;39.40;;;;;;20730;6782;275936;-78
2023/06/12 03:12:00;;;;;;;5.50;5.10;;;21.60;39.10;;;;;;20957;6726;116741;-78
2023/06/12 03:14:38;;;;;;;5.80;5.40;;;21.40;39.00;;;;;;20715;6726;303817;-78
2023/06/12 03:17:11;;;;;;;5.50;5.20;;;21.50;39.10;;;;;;20619;6726;326934;-80
2023/06/12 03:19:46;;;;;;;7.30;5.30;;;21.70;38.80;;;;;;20725;6726;275072;-77
2023/06/12 03:22:22;;;;;;;5.90;5.40;;;21.80;38.70;;;;;;20916;6726;119360;-77
2023/06/12 03:24:57;;;;;;;6.00;5.60;;;21.60;38.80;;;;;;20757;6726;275153;-79
2023/06/12 03:27:36;;;;;;;5.63;5.13;;;21.60;39.10;;;;;;20809;6726;119101;-79
2023/06/12 03:30:12;;;;;;;5.60;5.20;;;21.40;39.10;;;;;;20988;6722;115996;-79
2023/06/12 03:32:47;;;;;;;5.90;5.30;;;21.10;39.40;;;;;;20749;6722;309730;-79
2023/06/12 03:48:01;;;;;;;6.10;5.20;;;22.00;38.40;;;;;;21007;6474;88431;-76
2023/06/12 03:50:27;;;;;;;5.60;5.30;;;21.80;38.70;;;;;;20732;6835;119097;-77
2023/06/12 03:52:53;;;;;;;5.62;5.25;;;21.40;39.00;;;;;;20754;6836;117651;-75
2023/06/12 03:55:21;;;;;;;5.87;5.57;;;21.10;39.40;;;;;;20544;6826;282873;-75
2023/06/12 03:57:44;;;;;;;5.50;5.20;;;21.20;39.80;;;;;;20703;6842;117222;-76
2023/06/12 04:00:11;;;;;;;5.80;5.50;;;21.10;39.50;;;;;;20549;6833;307010;-76
2023/06/12 04:02:36;;;;;;;5.70;5.20;;;21.30;39.60;;;;;;20677;6832;119361;-76
2023/06/12 04:05:01;;;;;;;5.60;5.30;;;21.20;39.50;;;;;;20690;6848;124637;-76
2023/06/12 04:07:27;;;;;;;5.78;5.47;;;21.00;39.70;;;;;;20469;6851;280604;-75
2023/06/12 04:09:52;;;;;;;5.60;5.20;;;21.20;40.00;;;;;;20750;6830;117272;-76
2023/06/12 04:12:17;;;;;;;5.67;5.37;;;21.10;39.70;;;;;;20521;6832;306338;-76
2023/06/12 04:14:44;;;;;;;5.10;4.90;;;21.20;39.80;;;;;;20760;6832;119968;-76
2023/06/12 04:17:10;;;;;;;6.15;5.75;;;21.10;39.60;;;;;;20501;6847;315025;-75
2023/06/12 04:19:36;;;;;;;5.60;5.30;;;21.30;39.90;;;;;;20752;6832;117381;-76
2023/06/12 04:22:01;;;;;;;6.10;5.70;;;21.20;39.70;;;;;;20495;6847;310889;-75
2023/06/12 04:24:30;;;;;;;5.53;5.03;;;21.30;39.80;;;;;;20687;6848;120743;-76
2023/06/12 04:26:54;;;;;;;6.22;5.72;;;21.30;39.90;;;;;;20482;6848;336532;-76
2023/06/12 04:29:19;;;;;;;5.50;5.20;;;21.30;39.90;;;;;;20704;6848;117195;-76
2023/06/12 04:31:44;;;;;;;5.63;5.23;;;21.20;39.70;;;;;;20544;6832;306810;-76
2023/06/12 04:34:09;;;;;;;5.80;5.50;;;21.30;39.60;;;;;;20502;6848;306768;-76
2023/06/12 04:36:39;;;;;;;6.20;5.70;;;21.80;39.00;;;;;;20471;6848;334040;-75
2023/06/12 04:39:04;;;;;;;5.30;4.87;;;21.80;39.00;;;;;;20697;6848;117443;-78
2023/06/12 04:41:32;;;;;;;5.60;5.30;;;21.70;39.00;;;;;;20743;6832;116153;-76
2023/06/12 04:43:58;;;;;;;6.03;5.73;;;21.30;39.20;;;;;;20480;6848;321733;-77
2023/06/12 04:46:21;;;;;;;5.87;5.57;;;21.40;39.50;;;;;;20502;6832;308267;-79
2023/06/12 04:48:47;;;;;;;5.85;5.45;;;21.60;39.50;;;;;;20455;6856;277901;-79
2023/06/12 04:51:13;;;;;;;6.40;5.90;;;21.90;39.10;;;;;;20482;6847;345604;-77
2023/06/12 04:53:39;;;;;;;5.93;5.62;;;22.10;38.70;;;;;;20515;6830;306445;-77
2023/06/12 04:56:05;;;;;;;5.70;5.25;;;22.20;37.90;;;;;;20709;6837;117109;-80
2023/06/12 04:58:30;;;;;;;6.00;5.60;;;22.10;38.20;;;;;;20514;6840;278946;-77
2023/06/12 05:01:00;;;;;;;5.60;5.30;;;22.30;39.20;;;;;;20526;6841;278747;-77
2023/06/12 05:03:25;;;;;;;6.30;5.80;;;22.30;39.10;;;;;;20491;6841;287400;-79
2023/06/12 05:05:50;;;;;;;14.55;5.80;;;22.60;37.80;;;;;;20501;6839;345094;-79
2023/06/12 05:08:15;;;;;;;5.70;5.27;;;22.60;37.70;;;;;;20710;6839;119417;-80
2023/06/12 05:10:41;;;;;;;5.23;4.93;;;22.40;37.90;;;;;;20723;6841;117681;-79
2023/06/12 05:13:07;;;;;;;5.90;5.50;;;22.10;38.30;;;;;;20708;6846;117100;-80
2023/06/12 05:15:33;;;;;;;6.00;5.70;;;21.90;39.50;;;;;;20467;6852;307692;-80
2023/06/12 05:17:58;;;;;;;6.03;5.60;;;21.90;39.40;;;;;;20472;6852;291882;-80
2023/06/12 05:20:25;;;;;;;5.80;5.40;;;22.20;39.70;;;;;;20672;6852;119566;-76
2023/06/12 05:22:51;;;;;;;5.97;5.67;;;22.20;39.70;;;;;;20701;6852;118324;-81
2023/06/12 05:25:16;;;;;;;6.53;6.13;;;22.00;40.00;;;;;;20510;6844;288107;-80
2023/06/12 05:27:42;;;;;;;6.83;6.03;;;22.10;40.60;;;;;;20732;6844;117393;-84
2023/06/12 05:30:07;;;;;;;6.23;5.57;;;22.10;40.40;;;;;;20731;6844;116891;-77
2023/06/12 05:32:34;;;;;;;6.30;5.90;;;22.10;40.60;;;;;;20483;6844;309226;-79
2023/06/12 05:34:59;;;;;;;5.77;5.47;;;22.10;40.60;;;;;;20510;6844;308022;-80
2023/06/12 05:37:25;;;;;;;6.30;5.90;;;22.50;40.60;;;;;;20490;6849;336702;-80
2023/06/12 05:39:50;;;;;;;5.68;5.28;;;22.80;39.70;;;;;;20668;6851;118908;-78
2023/06/12 05:42:16;;;;;;;6.37;5.87;;;22.70;39.70;;;;;;20466;6847;295519;-80
2023/06/12 05:44:42;;;;;;;5.93;5.53;;;22.80;39.80;;;;;;20710;6847;119678;-80
2023/06/12 05:47:08;;;;;;;5.40;5.10;;;22.60;40.00;;;;;;20720;6845;117464;-80
2023/06/12 05:49:33;;;;;;;6.40;5.90;;;22.50;40.70;;;;;;20502;6845;317793;-78
2023/06/12 05:52:00;;;;;;;6.97;6.40;;;23.10;40.60;;;;;;20493;6845;315849;-82
2023/06/12 05:54:25;;;;;;;6.47;6.07;;;23.10;39.90;;;;;;20727;6832;121215;-78
2023/06/12 05:56:54;;;;;;;6.77;5.50;;;23.00;39.70;;;;;;20710;6845;117285;-80
2023/06/12 05:59:19;;;;;;;6.80;6.10;;;22.90;39.90;;;;;;20503;6845;307186;-79
2023/06/12 06:01:45;;;;;;;6.50;6.00;;;23.10;39.80;;;;;;20500;6845;306911;-80
2023/06/12 06:04:11;;;;;;;5.93;5.53;;;23.50;39.40;;;;;;20713;6845;117097;-82
2023/06/12 06:06:36;;;;;;;6.80;6.20;;;23.50;39.40;;;;;;20501;6845;278276;-80
2023/06/12 06:09:03;;;;;;;6.80;6.40;;;23.80;39.00;;;;;;20499;6839;314307;-79
2023/06/12 06:11:28;;;;;;;7.17;6.33;;;24.70;39.00;;;;;;20727;6840;117041;-77
2023/06/12 06:13:53;;;;;;;6.15;5.85;;;24.70;39.00;;;;;;20517;6840;336545;-79
2023/06/12 06:16:19;;;;;;;6.30;5.80;;;25.40;37.50;;;;;;20518;6841;310490;-79
2023/06/12 06:18:44;;;;;;;5.93;5.53;;;26.10;36.40;;;;;;20737;6841;117258;-79
2023/06/12 06:21:11;;;;;;;6.50;6.10;;;26.50;36.80;;;;;;20725;6841;118414;-82
2023/06/12 06:23:37;;;;;;;6.50;6.00;;;26.70;36.90;;;;;;20499;6841;308724;-79
2023/06/12 06:26:03;;;;;;;5.83;5.43;;;27.30;34.70;;;;;;20715;6841;119780;-82
2023/06/12 06:28:28;;;;;;;6.37;5.78;;;27.70;35.10;;;;;;20496;6841;277553;-78
2023/06/12 06:30:54;;;;;;;6.43;5.87;;;28.20;33.50;;;;;;20509;6841;311998;-81
2023/06/12 06:33:20;;;;;;;6.03;5.63;;;29.40;32.10;;;;;;20508;6841;277483;-79
2023/06/12 06:35:46;;;;;;;8.73;5.70;;;29.30;32.00;;;;;;20706;6841;117540;-84
2023/06/12 06:38:12;;;;;;;5.53;5.13;;;29.50;33.40;;;;;;20709;6841;118410;-81
2023/06/12 06:40:37;;;;;;;6.43;6.00;;;29.50;32.70;;;;;;20708;6841;119531;-78
2023/06/12 06:43:04;;;;;;;6.47;5.80;;;29.40;33.30;;;;;;20724;6841;118273;-78
2023/06/12 06:45:29;;;;;;;6.33;5.40;;;29.40;32.80;;;;;;20518;6841;307997;-78
2023/06/12 06:47:55;;;;;;;6.20;5.63;;;30.20;31.50;;;;;;20721;6841;117200;-78
2023/06/12 06:50:21;;;;;;;6.03;5.63;;;30.10;31.10;;;;;;20489;6841;306654;-79
2023/06/12 06:52:47;;;;;;;5.67;5.07;;;30.60;30.70;;;;;;20726;6841;117174;-83
2023/06/12 06:55:14;;;;;;;5.97;5.57;;;31.00;30.00;;;;;;20522;6841;282902;-82
2023/06/12 06:57:42;;;;;;;6.13;5.63;;;31.50;30.00;;;;;;20516;6841;278958;-81
2023/06/12 07:00:06;;;;;;;6.33;5.87;;;31.50;29.40;;;;;;20503;6841;307878;-80
2023/06/12 07:02:33;;;;;;;5.80;5.50;;;32.10;28.50;;;;;;20473;6841;307028;-80
2023/06/12 07:04:58;;;;;;;5.13;4.83;;;32.10;28.50;;;;;;20704;6841;117254;-81
2023/06/12 07:07:24;;;;;;;5.75;5.32;;;31.90;28.90;;;;;;20493;6841;342078;-82
2023/06/12 07:09:49;;;;;;;5.90;5.60;;;31.90;28.50;;;;;;20727;6841;117198;-82
2023/06/12 07:12:16;;;;;;;5.93;5.60;;;31.60;28.90;;;;;;20697;6841;117249;-80
2023/06/12 07:14:41;;;;;;;5.50;5.10;;;31.60;28.90;;;;;;20527;6841;296158;-78
2023/06/12 07:17:08;;;;;;;5.53;5.07;;;31.70;28.30;;;;;;20732;6841;117597;-82
2023/06/12 07:19:33;;;;;;;5.70;5.40;;;31.60;28.70;;;;;;20523;6841;309588;-78
2023/06/12 07:21:59;;;;;;;5.85;5.40;;;31.70;27.90;;;;;;20511;6839;311376;-79
2023/06/12 07:24:27;;;;;;;5.80;5.40;;;31.90;27.40;;;;;;20501;6840;308073;-83
2023/06/12 07:26:52;;;;;;;5.13;4.67;;;31.90;27.40;;;;;;20727;6840;117304;-83
2023/06/12 07:29:19;;;;;;;5.83;5.27;;;31.50;28.30;;;;;;20511;6841;307091;-80
2023/06/12 07:31:45;;;;;;;5.75;5.12;;;31.50;27.60;;;;;;20513;6841;336755;-81
2023/06/12 07:34:10;;;;;;;5.53;5.03;;;31.50;27.70;;;;;;20510;6841;278355;-79
2023/06/12 07:36:36;;;;;;;6.00;5.50;;;31.40;27.80;;;;;;20499;6841;276940;-79
2023/06/12 07:39:01;;;;;;;5.93;4.83;;;31.30;27.60;;;;;;20513;6841;306466;-82
2023/06/12 07:41:26;;;;;;;6.03;5.47;;;31.20;27.90;;;;;;20728;6841;117147;-79
2023/06/12 07:43:52;;;;;;;5.25;4.93;;;30.90;28.00;;;;;;20520;6841;312638;-78
2023/06/12 07:46:18;;;;;;;5.13;4.73;;;30.80;27.90;;;;;;20705;6841;123067;-79
2023/06/12 07:48:43;;;;;;;5.77;5.30;;;30.50;28.00;;;;;;20524;6841;279122;-81
2023/06/12 07:51:09;;;;;;;5.07;4.77;;;30.30;28.10;;;;;;20726;6841;117870;-81
2023/06/12 07:53:35;;;;;;;5.23;4.77;;;30.20;28.10;;;;;;20726;6841;116954;-78
2023/06/12 07:56:01;;;;;;;5.60;5.20;;;29.60;28.40;;;;;;20722;6841;117160;-80
2023/06/12 07:58:28;;;;;;;5.30;5.10;;;29.40;28.80;;;;;;20702;6841;117308;-79
2023/06/12 08:00:54;;;;;;;5.17;4.80;;;29.40;28.80;;;;;;20726;6841;117494;-77
2023/06/12 08:03:24;;;;;;;4.80;4.40;;;29.30;29.00;;;;;;20715;6841;117621;-79
2023/06/12 08:05:45;;;;;;;5.20;4.90;;;29.30;28.70;;;;;;20501;6841;307835;-81
2023/06/12 08:08:12;;;;;;;5.40;5.10;;;29.60;28.00;;;;;;20518;6841;277479;-78
2023/06/12 08:10:36;;;;;;;5.10;4.80;;;30.00;27.50;;;;;;20485;6841;311675;-80
2023/06/12 08:13:02;;;;;;;5.78;5.28;;;30.30;27.50;;;;;;20516;6841;278373;-78
2023/06/12 08:15:27;;;;;;;5.00;4.70;;;30.50;27.40;;;;;;20726;6841;117514;-77
2023/06/12 08:17:53;;;;;;;5.20;4.90;;;30.50;27.80;;;;;;20512;6841;306637;-78
2023/06/12 08:20:19;;;;;;;5.78;5.40;;;30.50;27.70;;;;;;20704;6841;127416;-77
2023/06/12 08:22:45;;;;;;;5.40;5.10;;;30.50;27.70;;;;;;20517;6841;307489;-80
2023/06/12 08:25:11;;;;;;;5.17;4.77;;;30.50;27.50;;;;;;20718;6841;116980;-78
2023/06/12 08:27:38;;;;;;;5.50;5.00;;;30.50;27.70;;;;;;20707;6841;117676;-81
2023/06/12 08:30:04;;;;;;;5.33;5.03;;;30.40;28.10;;;;;;20719;6839;117286;-77
2023/06/12 08:32:31;;;;;;;5.43;4.90;;;30.30;28.10;;;;;;20693;6839;119197;-80
2023/06/12 08:34:56;;;;;;;5.45;5.15;;;30.20;28.20;;;;;;20518;6841;336296;-78
2023/06/12 08:37:22;;;;;;;5.20;4.90;;;30.50;28.20;;;;;;20728;6841;122772;-79
2023/06/12 08:39:47;;;;;;;5.13;4.73;;;30.60;27.90;;;;;;20515;6841;281668;-79
2023/06/12 08:42:16;;;;;;;5.37;5.07;;;30.80;27.00;;;;;;20508;6841;299897;-77
2023/06/12 08:44:44;;;;;;;4.85;4.40;;;31.20;26.90;;;;;;20503;6841;340866;-78
2023/06/12 08:47:10;;;;;;;4.47;4.27;;;31.60;25.80;;;;;;20721;6837;117062;-81
2023/06/12 08:49:35;;;;;;;4.57;4.27;;;31.60;25.40;;;;;;20727;6837;119643;-78
2023/06/12 08:52:02;;;;;;;5.23;4.93;;;31.30;25.10;;;;;;20737;6837;119710;-78
2023/06/12 08:54:31;;;;;;;4.80;4.40;;;31.30;23.80;;;;;;20496;6837;309141;-78
2023/06/12 08:56:58;;;;;;;4.63;4.33;;;31.20;23.90;;;;;;20735;6837;117671;-77
2023/06/12 08:59:25;;;;;;;4.43;4.10;;;31.20;23.90;;;;;;20731;6837;122908;-77
2023/06/12 09:01:53;;;;;;;4.50;4.30;;;31.00;24.10;;;;;;20727;6837;117681;-78
2023/06/12 09:04:18;;;;;;;4.53;4.20;;;30.80;24.20;;;;;;20722;6837;117120;-82
2023/06/12 09:06:42;;;;;;;4.67;4.27;;;30.60;24.30;;;;;;20725;6837;119884;-77
2023/06/12 09:09:07;;;;;;;4.53;4.30;;;30.50;24.60;;;;;;20528;6837;306639;-80
2023/06/12 09:11:37;;;;;;;4.70;4.40;;;31.00;24.20;;;;;;20522;6837;276939;-79
2023/06/12 09:14:04;;;;;;;4.43;4.23;;;30.90;24.10;;;;;;20736;6837;116087;-79
2023/06/12 09:16:30;;;;;;;4.73;4.53;;;30.90;24.00;;;;;;20714;6837;117639;-80
2023/06/12 09:18:55;;;;;;;4.87;4.47;;;30.70;24.60;;;;;;20735;6837;117760;-81
2023/06/12 09:21:20;;;;;;;5.28;4.90;;;30.70;24.90;;;;;;20509;6837;310327;-78
2023/06/12 09:23:47;;;;;;;4.63;4.17;;;30.90;24.60;;;;;;20730;6837;123604;-80
2023/06/12 09:26:13;;;;;;;5.18;4.62;;;30.90;24.40;;;;;;20516;6837;306236;-81
2023/06/12 09:28:37;;;;;;;4.90;4.60;;;31.10;24.30;;;;;;20720;6837;120190;-79
2023/06/12 09:31:04;;;;;;;5.35;4.95;;;31.20;24.30;;;;;;20517;6837;276560;-78
2023/06/12 09:33:31;;;;;;;5.23;4.83;;;31.10;24.30;;;;;;20528;6837;305898;-79
2023/06/12 09:35:57;;;;;;;4.73;4.53;;;31.40;24.70;;;;;;20734;6837;117401;-79
2023/06/12 09:38:33;;;;;;;5.33;4.80;;;31.40;24.60;;;;;;20715;6837;117744;-82
2023/06/12 09:40:58;;;;;;;5.03;4.63;;;31.20;24.80;;;;;;20504;6837;309468;-79
2023/06/12 09:43:24;;;;;;;4.97;4.57;;;31.40;24.70;;;;;;20521;6837;335628;-82
2023/06/12 09:45:49;;;;;;;4.73;4.43;;;31.70;24.60;;;;;;20727;6835;117532;-81
2023/06/12 09:48:16;;;;;;;5.18;4.93;;;31.70;24.70;;;;;;20512;6836;304887;-81
2023/06/12 09:50:42;;;;;;;5.60;5.10;;;31.70;24.20;;;;;;20531;6837;276492;-79
2023/06/12 09:53:11;;;;;;;5.30;4.60;;;31.70;24.20;;;;;;20525;6837;307965;-83
2023/06/12 09:55:36;;;;;;;5.30;4.90;;;31.80;24.50;;;;;;20526;6837;275918;-81
2023/06/12 09:58:02;;;;;;;5.00;4.70;;;31.90;24.40;;;;;;20526;6837;308136;-79
2023/06/12 10:00:27;;;;;;;5.53;5.10;;;32.00;24.10;;;;;;20719;6837;122725;-79
2023/06/12 10:03:00;;;;;;;4.90;4.60;;;31.70;24.20;;;;;;20746;6837;118416;-81
2023/06/12 10:05:22;;;;;;;4.95;4.65;;;31.40;24.70;;;;;;20523;6837;334945;-79
2023/06/12 10:07:51;;;;;;;5.10;4.80;;;31.40;24.80;;;;;;20512;6837;305053;-82
2023/06/12 10:10:16;;;;;;;5.23;4.93;;;31.60;24.40;;;;;;20504;6837;300013;-79
2023/06/12 10:12:41;;;;;;;5.65;5.15;;;31.80;24.50;;;;;;20530;6837;306577;-80
2023/06/12 10:15:07;;;;;;;4.97;4.63;;;32.00;23.50;;;;;;20740;6837;119157;-79
2023/06/12 10:17:33;;;;;;;5.40;4.90;;;31.80;23.90;;;;;;20514;6837;306285;-80
2023/06/12 10:19:58;;;;;;;4.80;4.60;;;31.70;23.80;;;;;;20730;6837;118935;-83
2023/06/12 10:22:26;;;;;;;5.60;5.20;;;31.50;23.90;;;;;;20492;6837;277020;-80
2023/06/12 10:24:51;;;;;;;5.27;4.90;;;31.40;24.60;;;;;;20519;6837;305426;-80
2023/06/12 10:27:17;;;;;;;5.45;5.05;;;31.70;24.20;;;;;;20522;6837;275942;-80
2023/06/12 10:29:43;;;;;;;4.83;4.53;;;32.10;23.70;;;;;;20756;6837;117155;-80
2023/06/12 10:32:09;;;;;;;5.28;4.90;;;32.40;23.70;;;;;;20532;6837;308128;-79
2023/06/12 10:34:34;;;;;;;4.80;4.60;;;32.30;23.60;;;;;;20731;6837;117586;-81
2023/06/12 10:37:22;;;;;;;5.20;4.90;;;32.30;24.30;;;;;;20534;6837;299567;-80
2023/06/12 10:39:48;;;;;;;4.63;4.33;;;32.40;23.90;;;;;;20734;6837;119778;-81
2023/06/12 10:42:13;;;;;;;4.80;4.45;;;32.40;23.70;;;;;;20528;6837;310225;-83
2023/06/12 10:44:39;;;;;;;5.23;4.90;;;32.50;23.00;;;;;;20501;6837;279645;-79
2023/06/12 10:47:06;;;;;;;4.90;4.60;;;32.60;23.10;;;;;;20708;6837;117013;-80
2023/06/12 10:49:33;;;;;;;5.13;4.90;;;32.50;23.30;;;;;;20711;6837;119707;-80
2023/06/12 10:52:00;;;;;;;5.27;4.97;;;32.00;23.60;;;;;;20551;6837;116893;-82
2023/06/12 10:54:26;;;;;;;4.73;4.43;;;32.00;23.60;;;;;;20723;6837;117087;-80
2023/06/12 10:57:00;;;;;;;4.47;4.07;;;31.70;23.60;;;;;;20737;6835;117184;-78
2023/06/12 10:59:28;;;;;;;4.83;4.33;;;31.60;23.60;;;;;;20738;6836;117085;-77
2023/06/12 11:01:57;;;;;;;6.60;4.30;;;31.60;23.70;;;;;;20704;6837;117163;-79
2023/06/12 11:04:23;;;;;;;5.03;4.53;;;31.30;23.30;;;;;;20723;6837;123658;-77
2023/06/12 11:06:49;;;;;;;4.73;4.30;;;31.30;23.30;;;;;;20730;6837;120487;-83
2023/06/12 11:09:14;;;;;;;4.63;4.43;;;31.20;23.50;;;;;;20732;6837;117107;-80
2023/06/12 11:11:50;;;;;;;5.50;5.10;;;31.20;23.70;;;;;;20530;6837;305768;-77
2023/06/12 11:14:15;;;;;;;5.73;5.13;;;31.50;23.80;;;;;;20713;6837;120738;-77
2023/06/12 11:16:41;;;;;;;5.60;5.13;;;31.70;23.80;;;;;;20529;6837;307300;-78
2023/06/12 11:19:08;;;;;;;5.10;4.70;;;31.80;23.60;;;;;;20730;6837;116997;-76
2023/06/12 11:21:40;;;;;;;4.87;4.47;;;31.70;23.70;;;;;;20737;6837;117596;-78
2023/06/12 11:24:06;;;;;;;5.07;4.77;;;31.60;23.80;;;;;;20743;6837;119939;-81
2023/06/12 11:26:32;;;;;;;5.10;4.60;;;31.40;23.60;;;;;;20704;6837;122740;-76
2023/06/12 11:28:57;;;;;;;5.30;4.90;;;31.10;23.80;;;;;;20742;6837;117209;-77
2023/06/12 11:31:23;;;;;;;4.93;4.72;;;31.00;23.90;;;;;;20707;6837;66751;-80
2023/06/12 11:33:48;;;;;;;5.20;4.80;;;30.80;23.80;;;;;;20525;6837;290579;-76
2023/06/12 11:36:13;;;;;;;5.37;4.90;;;31.00;23.10;;;;;;20520;6837;284366;-78
2023/06/12 11:38:40;;;;;;;5.10;4.37;;;31.40;22.20;;;;;;20522;6837;305720;-76
2023/06/12 11:41:05;;;;;;;5.10;4.77;;;31.40;22.20;;;;;;20727;6837;116907;-80
2023/06/12 11:43:35;;;;;;;5.10;4.80;;;31.30;22.60;;;;;;20509;6837;305896;-80
2023/06/12 11:46:01;;;;;;;5.32;4.93;;;31.40;22.60;;;;;;20538;6837;276074;-78
2023/06/12 11:48:26;;;;;;;8.30;4.70;;;31.70;23.10;;;;;;20483;6837;305874;-76
2023/06/12 11:50:52;;;;;;;4.90;4.60;;;31.80;22.40;;;;;;20527;6837;280234;-80
2023/06/12 11:53:18;;;;;;;5.00;4.60;;;31.90;22.50;;;;;;20709;6837;116676;-80
2023/06/12 11:55:47;;;;;;;4.95;4.65;;;31.70;22.80;;;;;;20738;6837;120816;-78
2023/06/12 11:58:12;;;;;;;5.10;4.53;;;31.40;22.70;;;;;;20731;6837;117341;-78
2023/06/12 12:00:40;;;;;;;6.47;4.50;;;31.20;22.80;;;;;;20712;6837;123418;-76
2023/06/12 12:03:04;;;;;;;4.60;4.30;;;30.80;23.30;;;;;;20735;6837;117248;-77
2023/06/12 12:05:37;;;;;;;4.70;4.40;;;30.80;23.30;;;;;;20731;6837;117572;-79
2023/06/12 12:08:03;;;;;;;4.80;4.40;;;30.80;23.40;;;;;;20527;6835;276214;-77
2023/06/12 12:10:28;;;;;;;5.43;4.93;;;30.90;22.20;;;;;;20516;6836;306845;-77
2023/06/12 12:13:01;;;;;;;5.12;4.72;;;31.10;22.60;;;;;;20514;6836;276820;-81
2023/06/12 12:15:27;;;;;;;4.90;4.63;;;31.30;22.60;;;;;;20748;6837;117035;-78
2023/06/12 12:17:53;;;;;;;5.17;4.73;;;31.10;22.60;;;;;;20733;6837;117544;-80
2023/06/12 12:20:22;;;;;;;5.00;4.70;;;30.80;22.60;;;;;;20507;6837;306352;-77
2023/06/12 12:22:47;;;;;;;5.40;5.00;;;30.80;22.40;;;;;;20525;6837;335167;-77
2023/06/12 12:25:15;;;;;;;10.33;4.73;;;31.00;22.90;;;;;;20517;6837;276483;-81
2023/06/12 12:27:40;;;;;;;5.20;4.83;;;31.10;22.00;;;;;;20737;6837;117016;-78
2023/06/12 12:30:10;;;;;;;5.65;5.35;;;31.00;22.30;;;;;;20520;6837;292567;-78
2023/06/12 12:32:36;;;;;;;5.53;5.03;;;30.70;22.50;;;;;;20702;6837;117884;-77
2023/06/12 12:35:02;;;;;;;5.50;5.00;;;30.70;22.80;;;;;;20524;6837;310806;-78
2023/06/12 12:37:28;;;;;;;4.90;4.60;;;30.60;22.60;;;;;;20515;6837;316055;-77
2023/06/12 12:39:54;;;;;;;4.80;4.60;;;30.80;22.10;;;;;;20543;6837;296727;-77
2023/06/12 12:42:20;;;;;;;5.13;4.50;;;30.90;21.40;;;;;;20730;6837;120212;-78
2023/06/12 12:44:46;;;;;;;4.83;4.63;;;30.70;21.80;;;;;;20752;6837;117797;-78
2023/06/12 12:47:12;;;;;;;5.35;5.03;;;30.50;22.40;;;;;;20540;6837;334840;-79
2023/06/12 12:49:38;;;;;;;5.60;5.20;;;30.80;22.70;;;;;;20512;6837;294328;-78
2023/06/12 12:52:05;;;;;;;5.20;4.87;;;30.70;22.60;;;;;;20733;6837;117678;-79
2023/06/12 12:54:30;;;;;;;5.13;4.73;;;30.70;22.80;;;;;;20709;6837;123275;-80
2023/06/12 12:56:59;;;;;;;5.20;4.90;;;30.50;23.00;;;;;;20516;6837;311918;-80